sensor_id;sensor_type;location;lat;lon;timestamp;P1;durP1;ratioP1;P2;durP2;ratioP2
21138;SDS011;10727;43.600;1.444;2023-02-18T00:02:53;26.30;;;17.38;;
21138;SDS011;10727;43.600;1.444;2023-02-18T00:06:00;24.90;;;17.02;;
21138;SDS011;10727;43.600;1.444;2023-02-18T00:09:05;27.55;;;16.15;;
21138;SDS011;10727;43.600;1.444;2023-02-18T00:12:10;31.35;;;17.92;;
21138;SDS011;10727;43.600;1.444;2023-02-18T00:15:15;27.30;;;17.25;;
21138;SDS011;10727;43.600;1.444;2023-02-18T00:18:20;29.02;;;17.50;;
21138;SDS011;10727;43.600;1.444;2023-02-18T00:21:27;26.23;;;16.23;;
21138;SDS011;10727;43.600;1.444;2023-02-18T00:24:32;26.48;;;17.17;;
21138;SDS011;10727;43.600;1.444;2023-02-18T00:27:37;29.15;;;16.63;;
21138;SDS011;10727;43.600;1.444;2023-02-18T00:30:42;28.50;;;16.63;;
21138;SDS011;10727;43.600;1.444;2023-02-18T00:33:48;23.52;;;16.25;;
21138;SDS011;10727;43.600;1.444;2023-02-18T00:36:54;29.48;;;16.83;;
21138;SDS011;10727;43.600;1.444;2023-02-18T00:39:59;30.67;;;16.90;;
21138;SDS011;10727;43.600;1.444;2023-02-18T00:43:06;28.90;;;16.75;;
21138;SDS011;10727;43.600;1.444;2023-02-18T00:46:11;26.92;;;16.23;;
21138;SDS011;10727;43.600;1.444;2023-02-18T00:49:17;25.92;;;14.63;;
21138;SDS011;10727;43.600;1.444;2023-02-18T00:52:23;25.98;;;16.60;;
21138;SDS011;10727;43.600;1.444;2023-02-18T00:55:28;26.10;;;16.40;;
21138;SDS011;10727;43.600;1.444;2023-02-18T00:58:33;29.63;;;16.13;;
21138;SDS011;10727;43.600;1.444;2023-02-18T01:01:40;25.75;;;16.52;;
21138;SDS011;10727;43.600;1.444;2023-02-18T01:04:45;28.52;;;17.17;;
21138;SDS011;10727;43.600;1.444;2023-02-18T01:07:52;31.15;;;16.45;;
21138;SDS011;10727;43.600;1.444;2023-02-18T01:10:58;26.58;;;15.88;;
21138;SDS011;10727;43.600;1.444;2023-02-18T01:14:03;26.13;;;16.73;;
21138;SDS011;10727;43.600;1.444;2023-02-18T01:17:09;26.85;;;15.45;;
21138;SDS011;10727;43.600;1.444;2023-02-18T01:20:17;28.70;;;15.70;;
21138;SDS011;10727;43.600;1.444;2023-02-18T01:23:24;28.27;;;16.40;;
21138;SDS011;10727;43.600;1.444;2023-02-18T01:26:29;26.77;;;16.60;;
21138;SDS011;10727;43.600;1.444;2023-02-18T01:29:34;23.08;;;16.20;;
21138;SDS011;10727;43.600;1.444;2023-02-18T01:32:39;26.27;;;15.63;;
21138;SDS011;10727;43.600;1.444;2023-02-18T01:35:45;24.20;;;16.45;;
21138;SDS011;10727;43.600;1.444;2023-02-18T01:38:52;27.85;;;15.57;;
21138;SDS011;10727;43.600;1.444;2023-02-18T01:41:59;27.38;;;15.82;;
21138;SDS011;10727;43.600;1.444;2023-02-18T01:48:29;23.35;;;15.55;;
21138;SDS011;10727;43.600;1.444;2023-02-18T01:51:36;26.60;;;16.08;;
21138;SDS011;10727;43.600;1.444;2023-02-18T01:54:45;26.35;;;15.07;;
21138;SDS011;10727;43.600;1.444;2023-02-18T01:57:51;25.85;;;15.38;;
21138;SDS011;10727;43.600;1.444;2023-02-18T02:00:57;27.98;;;15.63;;
21138;SDS011;10727;43.600;1.444;2023-02-18T02:04:02;26.95;;;16.10;;
21138;SDS011;10727;43.600;1.444;2023-02-18T02:07:07;27.20;;;15.27;;
21138;SDS011;10727;43.600;1.444;2023-02-18T02:10:13;24.20;;;15.50;;
21138;SDS011;10727;43.600;1.444;2023-02-18T02:13:21;27.65;;;16.15;;
21138;SDS011;10727;43.600;1.444;2023-02-18T02:16:28;24.88;;;16.30;;
21138;SDS011;10727;43.600;1.444;2023-02-18T02:20:00;24.52;;;16.42;;
21138;SDS011;10727;43.600;1.444;2023-02-18T02:23:18;25.45;;;15.23;;
21138;SDS011;10727;43.600;1.444;2023-02-18T02:26:52;26.23;;;16.10;;
21138;SDS011;10727;43.600;1.444;2023-02-18T02:30:23;22.85;;;14.93;;
21138;SDS011;10727;43.600;1.444;2023-02-18T02:33:52;23.35;;;15.45;;
21138;SDS011;10727;43.600;1.444;2023-02-18T02:37:04;26.35;;;15.45;;
21138;SDS011;10727;43.600;1.444;2023-02-18T02:40:14;23.58;;;15.50;;
21138;SDS011;10727;43.600;1.444;2023-02-18T02:43:26;25.85;;;16.17;;
21138;SDS011;10727;43.600;1.444;2023-02-18T02:46:36;25.75;;;15.20;;
21138;SDS011;10727;43.600;1.444;2023-02-18T02:49:43;26.02;;;14.70;;
21138;SDS011;10727;43.600;1.444;2023-02-18T02:52:55;21.70;;;14.48;;
21138;SDS011;10727;43.600;1.444;2023-02-18T02:56:01;24.77;;;14.32;;
21138;SDS011;10727;43.600;1.444;2023-02-18T02:59:09;24.83;;;14.55;;
21138;SDS011;10727;43.600;1.444;2023-02-18T03:02:21;22.70;;;15.02;;
21138;SDS011;10727;43.600;1.444;2023-02-18T03:05:30;22.58;;;14.13;;
21138;SDS011;10727;43.600;1.444;2023-02-18T03:08:44;23.40;;;14.05;;
21138;SDS011;10727;43.600;1.444;2023-02-18T03:11:52;22.63;;;14.80;;
21138;SDS011;10727;43.600;1.444;2023-02-18T03:15:04;25.48;;;14.10;;
21138;SDS011;10727;43.600;1.444;2023-02-18T03:18:13;23.48;;;13.80;;
21138;SDS011;10727;43.600;1.444;2023-02-18T03:21:21;21.35;;;13.73;;
21138;SDS011;10727;43.600;1.444;2023-02-18T03:24:29;23.00;;;13.88;;
21138;SDS011;10727;43.600;1.444;2023-02-18T03:27:37;21.05;;;14.23;;
21138;SDS011;10727;43.600;1.444;2023-02-18T03:30:45;24.15;;;13.90;;
21138;SDS011;10727;43.600;1.444;2023-02-18T03:33:53;23.10;;;14.95;;
21138;SDS011;10727;43.600;1.444;2023-02-18T03:36:59;22.85;;;13.68;;
21138;SDS011;10727;43.600;1.444;2023-02-18T03:40:07;22.80;;;14.70;;
21138;SDS011;10727;43.600;1.444;2023-02-18T03:43:13;27.20;;;14.25;;
21138;SDS011;10727;43.600;1.444;2023-02-18T03:46:18;24.35;;;13.45;;
21138;SDS011;10727;43.600;1.444;2023-02-18T03:49:23;25.35;;;14.35;;
21138;SDS011;10727;43.600;1.444;2023-02-18T03:52:28;22.95;;;13.50;;
21138;SDS011;10727;43.600;1.444;2023-02-18T03:55:35;20.90;;;13.70;;
21138;SDS011;10727;43.600;1.444;2023-02-18T03:58:40;20.50;;;13.80;;
21138;SDS011;10727;43.600;1.444;2023-02-18T04:01:45;26.25;;;13.93;;
21138;SDS011;10727;43.600;1.444;2023-02-18T04:04:50;23.42;;;13.75;;
21138;SDS011;10727;43.600;1.444;2023-02-18T04:07:56;23.58;;;12.93;;
21138;SDS011;10727;43.600;1.444;2023-02-18T04:11:03;20.75;;;12.65;;
21138;SDS011;10727;43.600;1.444;2023-02-18T04:14:08;23.75;;;13.45;;
21138;SDS011;10727;43.600;1.444;2023-02-18T04:17:13;23.38;;;12.73;;
21138;SDS011;10727;43.600;1.444;2023-02-18T04:20:18;23.77;;;13.18;;
21138;SDS011;10727;43.600;1.444;2023-02-18T04:23:24;20.60;;;12.70;;
21138;SDS011;10727;43.600;1.444;2023-02-18T04:26:31;21.05;;;13.18;;
21138;SDS011;10727;43.600;1.444;2023-02-18T04:29:36;20.45;;;12.88;;
21138;SDS011;10727;43.600;1.444;2023-02-18T04:32:42;19.40;;;12.45;;
21138;SDS011;10727;43.600;1.444;2023-02-18T04:35:47;21.80;;;12.95;;
21138;SDS011;10727;43.600;1.444;2023-02-18T04:38:52;20.55;;;12.48;;
21138;SDS011;10727;43.600;1.444;2023-02-18T04:41:58;20.88;;;12.25;;
21138;SDS011;10727;43.600;1.444;2023-02-18T04:45:03;18.15;;;12.73;;
21138;SDS011;10727;43.600;1.444;2023-02-18T04:48:08;19.08;;;12.60;;
21138;SDS011;10727;43.600;1.444;2023-02-18T04:51:13;20.85;;;12.73;;
21138;SDS011;10727;43.600;1.444;2023-02-18T04:54:19;21.40;;;12.68;;
21138;SDS011;10727;43.600;1.444;2023-02-18T04:57:25;19.08;;;12.70;;
21138;SDS011;10727;43.600;1.444;2023-02-18T05:00:31;23.50;;;13.35;;
21138;SDS011;10727;43.600;1.444;2023-02-18T05:03:35;23.10;;;12.80;;
21138;SDS011;10727;43.600;1.444;2023-02-18T05:06:41;20.55;;;12.88;;
21138;SDS011;10727;43.600;1.444;2023-02-18T05:09:46;22.60;;;12.77;;
21138;SDS011;10727;43.600;1.444;2023-02-18T05:12:52;22.73;;;13.48;;
21138;SDS011;10727;43.600;1.444;2023-02-18T05:15:57;21.23;;;12.60;;
21138;SDS011;10727;43.600;1.444;2023-02-18T05:19:02;21.60;;;12.98;;
21138;SDS011;10727;43.600;1.444;2023-02-18T05:22:07;17.88;;;12.90;;
21138;SDS011;10727;43.600;1.444;2023-02-18T05:25:12;19.40;;;13.05;;
21138;SDS011;10727;43.600;1.444;2023-02-18T05:28:18;19.20;;;12.50;;
21138;SDS011;10727;43.600;1.444;2023-02-18T05:31:23;20.52;;;12.60;;
21138;SDS011;10727;43.600;1.444;2023-02-18T05:34:29;18.55;;;12.25;;
21138;SDS011;10727;43.600;1.444;2023-02-18T05:37:34;18.05;;;12.45;;
21138;SDS011;10727;43.600;1.444;2023-02-18T05:40:39;21.77;;;12.65;;
21138;SDS011;10727;43.600;1.444;2023-02-18T05:43:46;22.33;;;12.27;;
21138;SDS011;10727;43.600;1.444;2023-02-18T05:47:09;19.50;;;11.40;;
21138;SDS011;10727;43.600;1.444;2023-02-18T05:50:15;19.75;;;12.73;;
21138;SDS011;10727;43.600;1.444;2023-02-18T05:53:20;18.48;;;12.30;;
21138;SDS011;10727;43.600;1.444;2023-02-18T05:56:25;22.35;;;11.68;;
21138;SDS011;10727;43.600;1.444;2023-02-18T05:59:31;18.85;;;11.70;;
21138;SDS011;10727;43.600;1.444;2023-02-18T06:02:36;19.15;;;11.15;;
21138;SDS011;10727;43.600;1.444;2023-02-18T06:05:41;22.05;;;12.05;;
21138;SDS011;10727;43.600;1.444;2023-02-18T06:08:46;17.50;;;11.10;;
21138;SDS011;10727;43.600;1.444;2023-02-18T06:11:51;21.30;;;11.65;;
21138;SDS011;10727;43.600;1.444;2023-02-18T06:14:58;16.80;;;10.77;;
21138;SDS011;10727;43.600;1.444;2023-02-18T06:18:03;16.25;;;11.38;;
21138;SDS011;10727;43.600;1.444;2023-02-18T06:21:08;17.63;;;11.40;;
21138;SDS011;10727;43.600;1.444;2023-02-18T06:24:13;19.45;;;11.52;;
21138;SDS011;10727;43.600;1.444;2023-02-18T06:27:18;16.58;;;11.98;;
21138;SDS011;10727;43.600;1.444;2023-02-18T06:30:24;17.52;;;11.55;;
21138;SDS011;10727;43.600;1.444;2023-02-18T06:33:30;19.27;;;12.15;;
21138;SDS011;10727;43.600;1.444;2023-02-18T06:36:35;19.08;;;11.48;;
21138;SDS011;10727;43.600;1.444;2023-02-18T06:39:40;19.35;;;11.45;;
21138;SDS011;10727;43.600;1.444;2023-02-18T06:42:44;15.02;;;11.70;;
21138;SDS011;10727;43.600;1.444;2023-02-18T06:45:54;19.63;;;11.13;;
21138;SDS011;10727;43.600;1.444;2023-02-18T06:49:01;18.98;;;11.52;;
21138;SDS011;10727;43.600;1.444;2023-02-18T06:52:09;21.52;;;11.68;;
21138;SDS011;10727;43.600;1.444;2023-02-18T06:55:14;19.65;;;12.13;;
21138;SDS011;10727;43.600;1.444;2023-02-18T06:58:19;16.77;;;10.93;;
21138;SDS011;10727;43.600;1.444;2023-02-18T07:01:27;16.38;;;11.48;;
21138;SDS011;10727;43.600;1.444;2023-02-18T07:04:32;17.23;;;11.75;;
21138;SDS011;10727;43.600;1.444;2023-02-18T07:07:37;19.38;;;11.68;;
21138;SDS011;10727;43.600;1.444;2023-02-18T07:10:42;19.70;;;12.70;;
21138;SDS011;10727;43.600;1.444;2023-02-18T07:13:47;18.83;;;11.73;;
21138;SDS011;10727;43.600;1.444;2023-02-18T07:16:54;22.77;;;12.43;;
21138;SDS011;10727;43.600;1.444;2023-02-18T07:19:59;19.55;;;12.45;;
21138;SDS011;10727;43.600;1.444;2023-02-18T07:23:04;19.55;;;12.93;;
21138;SDS011;10727;43.600;1.444;2023-02-18T07:26:10;18.42;;;12.55;;
21138;SDS011;10727;43.600;1.444;2023-02-18T07:29:16;21.65;;;12.98;;
21138;SDS011;10727;43.600;1.444;2023-02-18T07:32:22;20.00;;;13.57;;
21138;SDS011;10727;43.600;1.444;2023-02-18T07:35:27;20.13;;;12.85;;
21138;SDS011;10727;43.600;1.444;2023-02-18T07:38:33;21.35;;;13.07;;
21138;SDS011;10727;43.600;1.444;2023-02-18T07:41:38;19.05;;;12.07;;
21138;SDS011;10727;43.600;1.444;2023-02-18T07:44:51;20.65;;;13.25;;
21138;SDS011;10727;43.600;1.444;2023-02-18T07:47:57;25.05;;;12.45;;
21138;SDS011;10727;43.600;1.444;2023-02-18T07:51:04;20.80;;;13.57;;
21138;SDS011;10727;43.600;1.444;2023-02-18T07:54:09;20.40;;;12.95;;
21138;SDS011;10727;43.600;1.444;2023-02-18T07:57:14;21.20;;;13.68;;
21138;SDS011;10727;43.600;1.444;2023-02-18T08:00:19;20.55;;;13.07;;
21138;SDS011;10727;43.600;1.444;2023-02-18T08:03:28;25.13;;;14.10;;
21138;SDS011;10727;43.600;1.444;2023-02-18T08:06:33;20.80;;;14.05;;
21138;SDS011;10727;43.600;1.444;2023-02-18T08:09:39;23.10;;;14.30;;
21138;SDS011;10727;43.600;1.444;2023-02-18T08:12:45;24.73;;;14.23;;
21138;SDS011;10727;43.600;1.444;2023-02-18T08:15:52;24.80;;;14.45;;
21138;SDS011;10727;43.600;1.444;2023-02-18T08:18:59;26.90;;;14.73;;
21138;SDS011;10727;43.600;1.444;2023-02-18T08:22:05;23.02;;;14.38;;
21138;SDS011;10727;43.600;1.444;2023-02-18T08:25:12;22.80;;;14.82;;
21138;SDS011;10727;43.600;1.444;2023-02-18T08:28:17;24.55;;;14.02;;
21138;SDS011;10727;43.600;1.444;2023-02-18T08:31:23;23.40;;;14.48;;
21138;SDS011;10727;43.600;1.444;2023-02-18T08:34:30;25.27;;;15.32;;
21138;SDS011;10727;43.600;1.444;2023-02-18T08:37:35;22.13;;;14.52;;
21138;SDS011;10727;43.600;1.444;2023-02-18T08:40:40;21.23;;;13.63;;
21138;SDS011;10727;43.600;1.444;2023-02-18T08:43:45;20.35;;;13.70;;
21138;SDS011;10727;43.600;1.444;2023-02-18T08:46:50;29.13;;;13.77;;
21138;SDS011;10727;43.600;1.444;2023-02-18T08:49:57;23.08;;;14.32;;
21138;SDS011;10727;43.600;1.444;2023-02-18T08:53:02;20.45;;;14.35;;
21138;SDS011;10727;43.600;1.444;2023-02-18T08:56:08;22.67;;;13.88;;
21138;SDS011;10727;43.600;1.444;2023-02-18T08:59:13;22.48;;;14.60;;
21138;SDS011;10727;43.600;1.444;2023-02-18T09:02:19;22.73;;;12.93;;
21138;SDS011;10727;43.600;1.444;2023-02-18T09:05:25;20.42;;;13.73;;
21138;SDS011;10727;43.600;1.444;2023-02-18T09:08:31;22.08;;;14.40;;
21138;SDS011;10727;43.600;1.444;2023-02-18T09:11:35;26.33;;;14.90;;
21138;SDS011;10727;43.600;1.444;2023-02-18T09:14:41;21.52;;;14.75;;
21138;SDS011;10727;43.600;1.444;2023-02-18T09:17:45;23.88;;;14.70;;
21138;SDS011;10727;43.600;1.444;2023-02-18T09:20:54;25.00;;;14.90;;
21138;SDS011;10727;43.600;1.444;2023-02-18T09:24:00;24.48;;;15.73;;
21138;SDS011;10727;43.600;1.444;2023-02-18T09:27:05;26.05;;;14.80;;
21138;SDS011;10727;43.600;1.444;2023-02-18T09:30:10;19.75;;;14.32;;
21138;SDS011;10727;43.600;1.444;2023-02-18T09:33:16;24.08;;;15.27;;
21138;SDS011;10727;43.600;1.444;2023-02-18T09:36:24;22.80;;;14.75;;
21138;SDS011;10727;43.600;1.444;2023-02-18T09:39:32;25.23;;;15.10;;
21138;SDS011;10727;43.600;1.444;2023-02-18T09:42:38;23.98;;;15.07;;
21138;SDS011;10727;43.600;1.444;2023-02-18T09:45:44;22.27;;;15.05;;
21138;SDS011;10727;43.600;1.444;2023-02-18T09:48:51;22.70;;;15.23;;
21138;SDS011;10727;43.600;1.444;2023-02-18T09:52:02;21.58;;;14.48;;
21138;SDS011;10727;43.600;1.444;2023-02-18T09:55:17;28.20;;;14.27;;
21138;SDS011;10727;43.600;1.444;2023-02-18T09:58:23;18.15;;;13.02;;
21138;SDS011;10727;43.600;1.444;2023-02-18T10:01:31;22.83;;;14.00;;
21138;SDS011;10727;43.600;1.444;2023-02-18T10:04:39;21.02;;;13.32;;
21138;SDS011;10727;43.600;1.444;2023-02-18T10:07:46;16.73;;;12.07;;
21138;SDS011;10727;43.600;1.444;2023-02-18T10:10:52;24.65;;;12.70;;
21138;SDS011;10727;43.600;1.444;2023-02-18T10:13:58;18.27;;;11.88;;
21138;SDS011;10727;43.600;1.444;2023-02-18T10:17:04;19.85;;;10.98;;
21138;SDS011;10727;43.600;1.444;2023-02-18T10:20:10;19.85;;;11.23;;
21138;SDS011;10727;43.600;1.444;2023-02-18T10:23:22;24.77;;;12.18;;
21138;SDS011;10727;43.600;1.444;2023-02-18T10:26:28;17.52;;;11.30;;
21138;SDS011;10727;43.600;1.444;2023-02-18T10:29:34;20.73;;;11.48;;
21138;SDS011;10727;43.600;1.444;2023-02-18T10:32:39;18.98;;;10.88;;
21138;SDS011;10727;43.600;1.444;2023-02-18T10:35:47;20.52;;;10.23;;
21138;SDS011;10727;43.600;1.444;2023-02-18T10:39:08;19.98;;;11.25;;
21138;SDS011;10727;43.600;1.444;2023-02-18T10:42:20;18.02;;;10.98;;
21138;SDS011;10727;43.600;1.444;2023-02-18T10:45:32;18.35;;;11.05;;
21138;SDS011;10727;43.600;1.444;2023-02-18T10:48:48;18.73;;;11.30;;
21138;SDS011;10727;43.600;1.444;2023-02-18T10:51:55;17.08;;;11.13;;
21138;SDS011;10727;43.600;1.444;2023-02-18T10:55:03;22.63;;;11.13;;
21138;SDS011;10727;43.600;1.444;2023-02-18T11:01:32;19.95;;;11.55;;
21138;SDS011;10727;43.600;1.444;2023-02-18T11:04:37;21.48;;;10.98;;
21138;SDS011;10727;43.600;1.444;2023-02-18T11:07:44;20.08;;;11.40;;
21138;SDS011;10727;43.600;1.444;2023-02-18T11:10:52;21.55;;;10.60;;
21138;SDS011;10727;43.600;1.444;2023-02-18T11:13:58;21.45;;;11.38;;
21138;SDS011;10727;43.600;1.444;2023-02-18T11:17:07;21.60;;;11.27;;
21138;SDS011;10727;43.600;1.444;2023-02-18T11:20:21;19.52;;;11.50;;
21138;SDS011;10727;43.600;1.444;2023-02-18T11:23:27;18.23;;;12.02;;
21138;SDS011;10727;43.600;1.444;2023-02-18T11:26:34;18.58;;;12.43;;
21138;SDS011;10727;43.600;1.444;2023-02-18T11:29:39;19.98;;;12.52;;
21138;SDS011;10727;43.600;1.444;2023-02-18T11:32:45;27.23;;;14.00;;
21138;SDS011;10727;43.600;1.444;2023-02-18T11:35:53;26.73;;;13.10;;
21138;SDS011;10727;43.600;1.444;2023-02-18T11:38:59;20.67;;;13.18;;
21138;SDS011;10727;43.600;1.444;2023-02-18T11:42:07;18.52;;;11.52;;
21138;SDS011;10727;43.600;1.444;2023-02-18T11:45:26;23.65;;;13.23;;
21138;SDS011;10727;43.600;1.444;2023-02-18T11:48:32;23.00;;;12.88;;
21138;SDS011;10727;43.600;1.444;2023-02-18T11:51:38;20.17;;;11.98;;
21138;SDS011;10727;43.600;1.444;2023-02-18T11:54:57;21.55;;;13.52;;
21138;SDS011;10727;43.600;1.444;2023-02-18T11:58:05;23.55;;;14.20;;
21138;SDS011;10727;43.600;1.444;2023-02-18T12:01:11;26.58;;;14.80;;
21138;SDS011;10727;43.600;1.444;2023-02-18T12:04:18;27.10;;;14.43;;
21138;SDS011;10727;43.600;1.444;2023-02-18T12:07:26;22.80;;;13.90;;
21138;SDS011;10727;43.600;1.444;2023-02-18T12:10:34;24.67;;;14.25;;
21138;SDS011;10727;43.600;1.444;2023-02-18T12:13:45;20.85;;;13.65;;
21138;SDS011;10727;43.600;1.444;2023-02-18T12:20:22;25.13;;;13.43;;
21138;SDS011;10727;43.600;1.444;2023-02-18T12:23:31;21.75;;;11.88;;
21138;SDS011;10727;43.600;1.444;2023-02-18T12:26:43;18.80;;;12.23;;
21138;SDS011;10727;43.600;1.444;2023-02-18T12:29:55;14.88;;;11.20;;
21138;SDS011;10727;43.600;1.444;2023-02-18T12:33:05;22.25;;;10.77;;
21138;SDS011;10727;43.600;1.444;2023-02-18T12:36:12;24.55;;;13.07;;
21138;SDS011;10727;43.600;1.444;2023-02-18T12:39:30;21.35;;;10.95;;
21138;SDS011;10727;43.600;1.444;2023-02-18T12:42:42;18.15;;;10.77;;
21138;SDS011;10727;43.600;1.444;2023-02-18T12:45:54;15.73;;;10.20;;
21138;SDS011;10727;43.600;1.444;2023-02-18T12:49:04;18.23;;;10.20;;
21138;SDS011;10727;43.600;1.444;2023-02-18T12:52:15;21.52;;;13.68;;
21138;SDS011;10727;43.600;1.444;2023-02-18T12:55:31;19.23;;;11.35;;
21138;SDS011;10727;43.600;1.444;2023-02-18T12:58:42;14.55;;;10.52;;
21138;SDS011;10727;43.600;1.444;2023-02-18T13:01:53;15.43;;;10.30;;
21138;SDS011;10727;43.600;1.444;2023-02-18T13:05:01;17.90;;;10.07;;
21138;SDS011;10727;43.600;1.444;2023-02-18T13:08:17;14.45;;;9.55;;
21138;SDS011;10727;43.600;1.444;2023-02-18T13:11:27;14.75;;;9.57;;
21138;SDS011;10727;43.600;1.444;2023-02-18T13:14:38;13.60;;;9.95;;
21138;SDS011;10727;43.600;1.444;2023-02-18T13:17:48;18.55;;;10.68;;
21138;SDS011;10727;43.600;1.444;2023-02-18T13:20:55;14.20;;;9.60;;
21138;SDS011;10727;43.600;1.444;2023-02-18T13:24:02;15.27;;;10.00;;
21138;SDS011;10727;43.600;1.444;2023-02-18T13:27:11;14.82;;;8.70;;
21138;SDS011;10727;43.600;1.444;2023-02-18T13:30:20;17.30;;;8.88;;
21138;SDS011;10727;43.600;1.444;2023-02-18T13:33:30;16.48;;;8.48;;
21138;SDS011;10727;43.600;1.444;2023-02-18T13:36:41;16.13;;;8.40;;
21138;SDS011;10727;43.600;1.444;2023-02-18T13:39:48;13.98;;;8.35;;
21138;SDS011;10727;43.600;1.444;2023-02-18T13:42:54;13.98;;;8.93;;
21138;SDS011;10727;43.600;1.444;2023-02-18T13:46:21;13.63;;;8.35;;
21138;SDS011;10727;43.600;1.444;2023-02-18T13:49:30;12.52;;;6.97;;
21138;SDS011;10727;43.600;1.444;2023-02-18T13:52:35;8.77;;;5.93;;
21138;SDS011;10727;43.600;1.444;2023-02-18T13:55:44;11.00;;;6.95;;
21138;SDS011;10727;43.600;1.444;2023-02-18T13:58:51;12.18;;;7.53;;
21138;SDS011;10727;43.600;1.444;2023-02-18T14:02:21;10.85;;;6.63;;
21138;SDS011;10727;43.600;1.444;2023-02-18T14:05:37;10.48;;;6.90;;
21138;SDS011;10727;43.600;1.444;2023-02-18T14:08:42;13.05;;;8.20;;
21138;SDS011;10727;43.600;1.444;2023-02-18T14:11:48;12.40;;;6.60;;
21138;SDS011;10727;43.600;1.444;2023-02-18T14:14:57;11.02;;;5.90;;
21138;SDS011;10727;43.600;1.444;2023-02-18T14:18:20;11.23;;;6.95;;
21138;SDS011;10727;43.600;1.444;2023-02-18T14:21:40;12.13;;;6.85;;
21138;SDS011;10727;43.600;1.444;2023-02-18T14:24:46;10.18;;;5.22;;
21138;SDS011;10727;43.600;1.444;2023-02-18T14:27:52;11.05;;;5.82;;
21138;SDS011;10727;43.600;1.444;2023-02-18T14:30:59;10.20;;;5.70;;
21138;SDS011;10727;43.600;1.444;2023-02-18T14:41:02;9.63;;;5.50;;
21138;SDS011;10727;43.600;1.444;2023-02-18T14:44:28;9.65;;;5.20;;
21138;SDS011;10727;43.600;1.444;2023-02-18T14:47:39;9.57;;;4.85;;
21138;SDS011;10727;43.600;1.444;2023-02-18T14:50:48;8.77;;;5.43;;
21138;SDS011;10727;43.600;1.444;2023-02-18T14:53:55;11.02;;;6.53;;
21138;SDS011;10727;43.600;1.444;2023-02-18T14:57:02;6.55;;;4.70;;
21138;SDS011;10727;43.600;1.444;2023-02-18T15:00:13;10.40;;;5.68;;
21138;SDS011;10727;43.600;1.444;2023-02-18T15:03:19;11.20;;;5.88;;
21138;SDS011;10727;43.600;1.444;2023-02-18T15:06:27;11.40;;;5.80;;
21138;SDS011;10727;43.600;1.444;2023-02-18T15:09:32;10.60;;;5.60;;
21138;SDS011;10727;43.600;1.444;2023-02-18T15:12:39;8.80;;;6.22;;
21138;SDS011;10727;43.600;1.444;2023-02-18T15:15:45;9.82;;;5.43;;
21138;SDS011;10727;43.600;1.444;2023-02-18T15:18:52;10.63;;;5.88;;
21138;SDS011;10727;43.600;1.444;2023-02-18T15:21:58;10.95;;;6.05;;
21138;SDS011;10727;43.600;1.444;2023-02-18T15:25:03;8.75;;;5.30;;
21138;SDS011;10727;43.600;1.444;2023-02-18T15:28:19;11.77;;;5.25;;
21138;SDS011;10727;43.600;1.444;2023-02-18T15:31:25;8.95;;;5.35;;
21138;SDS011;10727;43.600;1.444;2023-02-18T15:34:33;8.57;;;5.07;;
21138;SDS011;10727;43.600;1.444;2023-02-18T15:37:42;9.35;;;4.97;;
21138;SDS011;10727;43.600;1.444;2023-02-18T15:40:48;7.10;;;5.15;;
21138;SDS011;10727;43.600;1.444;2023-02-18T15:43:56;6.97;;;5.07;;
21138;SDS011;10727;43.600;1.444;2023-02-18T15:47:05;9.20;;;5.45;;
21138;SDS011;10727;43.600;1.444;2023-02-18T15:50:14;8.60;;;5.25;;
21138;SDS011;10727;43.600;1.444;2023-02-18T15:53:20;9.30;;;5.50;;
21138;SDS011;10727;43.600;1.444;2023-02-18T15:56:28;8.45;;;5.38;;
21138;SDS011;10727;43.600;1.444;2023-02-18T15:59:35;10.98;;;6.07;;
21138;SDS011;10727;43.600;1.444;2023-02-18T16:02:51;10.32;;;6.10;;
21138;SDS011;10727;43.600;1.444;2023-02-18T16:06:07;26.55;;;18.30;;
21138;SDS011;10727;43.600;1.444;2023-02-18T16:09:14;20.98;;;15.98;;
21138;SDS011;10727;43.600;1.444;2023-02-18T16:12:21;13.90;;;8.15;;
21138;SDS011;10727;43.600;1.444;2023-02-18T16:15:32;14.50;;;7.90;;
21138;SDS011;10727;43.600;1.444;2023-02-18T16:18:41;7.72;;;5.63;;
21138;SDS011;10727;43.600;1.444;2023-02-18T16:21:46;12.30;;;6.00;;
21138;SDS011;10727;43.600;1.444;2023-02-18T16:24:54;9.43;;;5.75;;
21138;SDS011;10727;43.600;1.444;2023-02-18T16:28:03;8.63;;;5.40;;
21138;SDS011;10727;43.600;1.444;2023-02-18T16:31:10;8.75;;;5.60;;
21138;SDS011;10727;43.600;1.444;2023-02-18T16:34:18;7.00;;;5.05;;
21138;SDS011;10727;43.600;1.444;2023-02-18T16:37:23;6.90;;;4.78;;
21138;SDS011;10727;43.600;1.444;2023-02-18T16:40:42;8.95;;;5.18;;
21138;SDS011;10727;43.600;1.444;2023-02-18T16:43:49;9.68;;;4.55;;
21138;SDS011;10727;43.600;1.444;2023-02-18T16:46:57;9.68;;;4.80;;
21138;SDS011;10727;43.600;1.444;2023-02-18T16:50:02;7.00;;;4.72;;
21138;SDS011;10727;43.600;1.444;2023-02-18T16:53:08;10.93;;;5.20;;
21138;SDS011;10727;43.600;1.444;2023-02-18T16:56:16;5.93;;;4.32;;
21138;SDS011;10727;43.600;1.444;2023-02-18T16:59:22;6.70;;;4.47;;
21138;SDS011;10727;43.600;1.444;2023-02-18T17:02:29;13.13;;;5.20;;
21138;SDS011;10727;43.600;1.444;2023-02-18T17:05:34;8.60;;;5.25;;
21138;SDS011;10727;43.600;1.444;2023-02-18T17:08:42;6.63;;;4.90;;
21138;SDS011;10727;43.600;1.444;2023-02-18T17:11:48;8.82;;;5.45;;
21138;SDS011;10727;43.600;1.444;2023-02-18T17:14:54;8.40;;;5.35;;
21138;SDS011;10727;43.600;1.444;2023-02-18T17:18:00;7.50;;;4.70;;
21138;SDS011;10727;43.600;1.444;2023-02-18T17:21:07;13.05;;;6.45;;
21138;SDS011;10727;43.600;1.444;2023-02-18T17:24:14;10.75;;;6.43;;
21138;SDS011;10727;43.600;1.444;2023-02-18T17:27:19;8.98;;;6.53;;
21138;SDS011;10727;43.600;1.444;2023-02-18T17:30:24;9.43;;;6.70;;
21138;SDS011;10727;43.600;1.444;2023-02-18T17:33:31;10.77;;;7.10;;
21138;SDS011;10727;43.600;1.444;2023-02-18T17:36:37;17.50;;;10.80;;
21138;SDS011;10727;43.600;1.444;2023-02-18T17:39:47;31.40;;;23.20;;
21138;SDS011;10727;43.600;1.444;2023-02-18T17:42:52;20.52;;;11.95;;
21138;SDS011;10727;43.600;1.444;2023-02-18T17:45:57;14.32;;;8.40;;
21138;SDS011;10727;43.600;1.444;2023-02-18T17:49:04;12.68;;;7.95;;
21138;SDS011;10727;43.600;1.444;2023-02-18T17:52:12;10.02;;;7.07;;
21138;SDS011;10727;43.600;1.444;2023-02-18T17:55:26;11.32;;;7.22;;
21138;SDS011;10727;43.600;1.444;2023-02-18T17:58:32;10.85;;;6.70;;
21138;SDS011;10727;43.600;1.444;2023-02-18T18:01:37;11.45;;;7.25;;
21138;SDS011;10727;43.600;1.444;2023-02-18T18:04:44;12.23;;;7.38;;
21138;SDS011;10727;43.600;1.444;2023-02-18T18:07:49;12.48;;;8.20;;
21138;SDS011;10727;43.600;1.444;2023-02-18T18:10:55;18.35;;;9.77;;
21138;SDS011;10727;43.600;1.444;2023-02-18T18:14:02;14.68;;;9.80;;
21138;SDS011;10727;43.600;1.444;2023-02-18T18:17:08;16.52;;;10.20;;
21138;SDS011;10727;43.600;1.444;2023-02-18T18:20:15;15.65;;;11.25;;
21138;SDS011;10727;43.600;1.444;2023-02-18T18:23:21;17.55;;;10.52;;
21138;SDS011;10727;43.600;1.444;2023-02-18T18:26:26;24.15;;;12.82;;
21138;SDS011;10727;43.600;1.444;2023-02-18T18:29:32;59.03;;;32.13;;
21138;SDS011;10727;43.600;1.444;2023-02-18T18:32:37;83.47;;;46.65;;
21138;SDS011;10727;43.600;1.444;2023-02-18T18:35:43;64.22;;;35.83;;
21138;SDS011;10727;43.600;1.444;2023-02-18T18:38:49;48.90;;;28.73;;
21138;SDS011;10727;43.600;1.444;2023-02-18T18:41:54;33.47;;;21.60;;